sensor_id;sensor_type;location;lat;lon;timestamp;temperature;humidity
17437;DHT22;70275;52.198;5.422;2023-07-09T00:02:16;24.50;65.30
17437;DHT22;70275;52.198;5.422;2023-07-09T00:04:45;24.60;64.20
17437;DHT22;70275;52.198;5.422;2023-07-09T00:07:21;24.50;63.10
17437;DHT22;70275;52.198;5.422;2023-07-09T00:09:54;24.40;63.30
17437;DHT22;70275;52.198;5.422;2023-07-09T00:12:27;24.30;63.20
17437;DHT22;70275;52.198;5.422;2023-07-09T00:14:56;24.30;63.50
17437;DHT22;70275;52.198;5.422;2023-07-09T00:17:27;24.20;63.90
17437;DHT22;70275;52.198;5.422;2023-07-09T00:19:59;24.20;64.30
17437;DHT22;70275;52.198;5.422;2023-07-09T00:22:29;24.10;64.80
17437;DHT22;70275;52.198;5.422;2023-07-09T00:24:58;24.00;65.40
17437;DHT22;70275;52.198;5.422;2023-07-09T00:27:29;24.00;65.70
17437;DHT22;70275;52.198;5.422;2023-07-09T00:29:59;23.90;66.00
17437;DHT22;70275;52.198;5.422;2023-07-09T00:32:28;23.90;66.30
17437;DHT22;70275;52.198;5.422;2023-07-09T00:34:58;23.80;66.70
17437;DHT22;70275;52.198;5.422;2023-07-09T00:37:30;23.80;67.20
17437;DHT22;70275;52.198;5.422;2023-07-09T00:39:59;23.70;67.80
17437;DHT22;70275;52.198;5.422;2023-07-09T00:42:31;23.70;68.20
17437;DHT22;70275;52.198;5.422;2023-07-09T00:45:00;23.60;68.80
17437;DHT22;70275;52.198;5.422;2023-07-09T00:47:41;23.50;69.10
17437;DHT22;70275;52.198;5.422;2023-07-09T00:50:20;23.50;69.20
17437;DHT22;70275;52.198;5.422;2023-07-09T00:52:59;23.50;69.50
17437;DHT22;70275;52.198;5.422;2023-07-09T00:55:36;23.50;69.60
17437;DHT22;70275;52.198;5.422;2023-07-09T00:58:14;23.50;69.50
17437;DHT22;70275;52.198;5.422;2023-07-09T01:00:46;23.60;69.70
17437;DHT22;70275;52.198;5.422;2023-07-09T01:03:34;23.60;70.10
17437;DHT22;70275;52.198;5.422;2023-07-09T01:06:07;23.50;70.00
17437;DHT22;70275;52.198;5.422;2023-07-09T01:08:39;23.60;70.40
17437;DHT22;70275;52.198;5.422;2023-07-09T01:11:15;23.60;70.40
17437;DHT22;70275;52.198;5.422;2023-07-09T01:13:50;23.50;70.70
17437;DHT22;70275;52.198;5.422;2023-07-09T01:16:23;23.40;71.40
17437;DHT22;70275;52.198;5.422;2023-07-09T01:18:57;23.30;71.90
17437;DHT22;70275;52.198;5.422;2023-07-09T01:21:29;23.30;72.10
17437;DHT22;70275;52.198;5.422;2023-07-09T01:23:58;23.30;72.20
17437;DHT22;70275;52.198;5.422;2023-07-09T01:26:40;23.30;72.20
17437;DHT22;70275;52.198;5.422;2023-07-09T01:29:09;23.30;72.40
17437;DHT22;70275;52.198;5.422;2023-07-09T01:31:38;23.30;72.50
17437;DHT22;70275;52.198;5.422;2023-07-09T01:34:07;23.20;72.70
17437;DHT22;70275;52.198;5.422;2023-07-09T01:36:39;23.20;72.50
17437;DHT22;70275;52.198;5.422;2023-07-09T01:39:09;23.30;72.40
17437;DHT22;70275;52.198;5.422;2023-07-09T01:41:38;23.30;72.50
17437;DHT22;70275;52.198;5.422;2023-07-09T01:44:07;23.30;72.30
17437;DHT22;70275;52.198;5.422;2023-07-09T01:46:37;23.20;72.20
17437;DHT22;70275;52.198;5.422;2023-07-09T01:49:07;23.20;72.40
17437;DHT22;70275;52.198;5.422;2023-07-09T01:51:39;23.20;72.20
17437;DHT22;70275;52.198;5.422;2023-07-09T01:54:08;23.30;71.10
17437;DHT22;70275;52.198;5.422;2023-07-09T01:56:37;23.30;71.60
17437;DHT22;70275;52.198;5.422;2023-07-09T01:59:06;23.20;72.50
17437;DHT22;70275;52.198;5.422;2023-07-09T02:01:36;23.00;72.90
17437;DHT22;70275;52.198;5.422;2023-07-09T02:04:06;23.00;72.80
17437;DHT22;70275;52.198;5.422;2023-07-09T02:06:35;23.00;73.00
17437;DHT22;70275;52.198;5.422;2023-07-09T02:09:07;23.00;73.40
17437;DHT22;70275;52.198;5.422;2023-07-09T02:11:36;22.80;73.50
17437;DHT22;70275;52.198;5.422;2023-07-09T02:14:05;22.80;73.80
17437;DHT22;70275;52.198;5.422;2023-07-09T02:16:34;22.70;73.80
17437;DHT22;70275;52.198;5.422;2023-07-09T02:19:03;22.70;73.80
17437;DHT22;70275;52.198;5.422;2023-07-09T02:21:32;22.70;73.70
17437;DHT22;70275;52.198;5.422;2023-07-09T02:24:01;22.80;73.70
17437;DHT22;70275;52.198;5.422;2023-07-09T02:26:33;22.80;73.50
17437;DHT22;70275;52.198;5.422;2023-07-09T02:29:02;22.80;73.50
17437;DHT22;70275;52.198;5.422;2023-07-09T02:31:31;22.70;73.90
17437;DHT22;70275;52.198;5.422;2023-07-09T02:34:00;22.70;74.00
17437;DHT22;70275;52.198;5.422;2023-07-09T02:36:30;22.60;74.40
17437;DHT22;70275;52.198;5.422;2023-07-09T02:38:59;22.60;74.30
17437;DHT22;70275;52.198;5.422;2023-07-09T02:41:28;22.70;74.00
17437;DHT22;70275;52.198;5.422;2023-07-09T02:43:59;22.60;74.10
17437;DHT22;70275;52.198;5.422;2023-07-09T02:46:28;22.60;74.20
17437;DHT22;70275;52.198;5.422;2023-07-09T02:48:57;22.70;73.90
17437;DHT22;70275;52.198;5.422;2023-07-09T02:51:26;22.60;74.30
17437;DHT22;70275;52.198;5.422;2023-07-09T02:53:56;22.60;74.10
17437;DHT22;70275;52.198;5.422;2023-07-09T02:56:26;22.50;74.50
17437;DHT22;70275;52.198;5.422;2023-07-09T02:58:59;22.50;74.80
17437;DHT22;70275;52.198;5.422;2023-07-09T03:01:28;22.40;75.10
17437;DHT22;70275;52.198;5.422;2023-07-09T03:04:00;22.40;75.20
17437;DHT22;70275;52.198;5.422;2023-07-09T03:06:31;22.40;75.10
17437;DHT22;70275;52.198;5.422;2023-07-09T03:09:01;22.30;75.10
17437;DHT22;70275;52.198;5.422;2023-07-09T03:11:33;22.30;75.50
17437;DHT22;70275;52.198;5.422;2023-07-09T03:14:06;22.40;75.00
17437;DHT22;70275;52.198;5.422;2023-07-09T03:16:35;22.30;75.20
17437;DHT22;70275;52.198;5.422;2023-07-09T03:19:05;22.40;75.20
17437;DHT22;70275;52.198;5.422;2023-07-09T03:21:34;22.40;75.30
17437;DHT22;70275;52.198;5.422;2023-07-09T03:24:05;22.30;75.30
17437;DHT22;70275;52.198;5.422;2023-07-09T03:26:35;22.30;75.20
17437;DHT22;70275;52.198;5.422;2023-07-09T03:29:07;22.30;75.30
17437;DHT22;70275;52.198;5.422;2023-07-09T03:31:36;22.30;75.30
17437;DHT22;70275;52.198;5.422;2023-07-09T03:34:05;22.20;75.50
17437;DHT22;70275;52.198;5.422;2023-07-09T03:36:34;22.30;75.00
17437;DHT22;70275;52.198;5.422;2023-07-09T03:39:04;22.40;74.30
17437;DHT22;70275;52.198;5.422;2023-07-09T03:41:33;22.40;74.60
17437;DHT22;70275;52.198;5.422;2023-07-09T03:44:03;22.40;74.30
17437;DHT22;70275;52.198;5.422;2023-07-09T03:46:34;22.30;74.10
17437;DHT22;70275;52.198;5.422;2023-07-09T03:49:03;22.30;74.30
17437;DHT22;70275;52.198;5.422;2023-07-09T03:51:32;22.30;74.30
17437;DHT22;70275;52.198;5.422;2023-07-09T03:54:01;22.30;74.30
17437;DHT22;70275;52.198;5.422;2023-07-09T03:56:31;22.40;73.60
17437;DHT22;70275;52.198;5.422;2023-07-09T03:59:00;22.40;73.30
17437;DHT22;70275;52.198;5.422;2023-07-09T04:01:31;22.40;73.30
17437;DHT22;70275;52.198;5.422;2023-07-09T04:04:00;22.50;73.60
17437;DHT22;70275;52.198;5.422;2023-07-09T04:06:29;22.50;73.00
17437;DHT22;70275;52.198;5.422;2023-07-09T04:08:58;22.70;72.10
17437;DHT22;70275;52.198;5.422;2023-07-09T04:11:27;22.70;71.90
17437;DHT22;70275;52.198;5.422;2023-07-09T04:13:56;22.70;71.60
17437;DHT22;70275;52.198;5.422;2023-07-09T04:16:25;22.70;71.40
17437;DHT22;70275;52.198;5.422;2023-07-09T04:18:57;22.80;71.50
17437;DHT22;70275;52.198;5.422;2023-07-09T04:21:26;22.80;71.50
17437;DHT22;70275;52.198;5.422;2023-07-09T04:23:55;22.80;71.30
17437;DHT22;70275;52.198;5.422;2023-07-09T04:26:24;22.80;71.60
17437;DHT22;70275;52.198;5.422;2023-07-09T04:28:53;22.80;72.10
17437;DHT22;70275;52.198;5.422;2023-07-09T04:31:22;22.80;71.80
17437;DHT22;70275;52.198;5.422;2023-07-09T04:33:51;22.90;71.50
17437;DHT22;70275;52.198;5.422;2023-07-09T04:36:23;22.90;71.20
17437;DHT22;70275;52.198;5.422;2023-07-09T04:38:53;23.00;70.50
17437;DHT22;70275;52.198;5.422;2023-07-09T04:41:22;23.10;70.40
17437;DHT22;70275;52.198;5.422;2023-07-09T04:43:51;23.30;69.60
17437;DHT22;70275;52.198;5.422;2023-07-09T04:46:20;23.30;70.00
17437;DHT22;70275;52.198;5.422;2023-07-09T04:48:49;23.40;69.80
17437;DHT22;70275;52.198;5.422;2023-07-09T04:51:18;23.30;70.50
17437;DHT22;70275;52.198;5.422;2023-07-09T04:53:49;23.30;71.10
17437;DHT22;70275;52.198;5.422;2023-07-09T04:56:19;23.30;71.00
17437;DHT22;70275;52.198;5.422;2023-07-09T04:58:48;23.40;70.40
17437;DHT22;70275;52.198;5.422;2023-07-09T05:01:17;23.50;70.80
17437;DHT22;70275;52.198;5.422;2023-07-09T05:03:46;23.50;70.60
17437;DHT22;70275;52.198;5.422;2023-07-09T05:06:16;23.60;70.90
17437;DHT22;70275;52.198;5.422;2023-07-09T05:08:45;23.60;70.80
17437;DHT22;70275;52.198;5.422;2023-07-09T05:11:16;23.60;70.40
17437;DHT22;70275;52.198;5.422;2023-07-09T05:13:46;23.50;70.30
17437;DHT22;70275;52.198;5.422;2023-07-09T05:16:15;23.60;70.80
17437;DHT22;70275;52.198;5.422;2023-07-09T05:18:45;23.60;69.60
17437;DHT22;70275;52.198;5.422;2023-07-09T05:21:14;23.70;69.80
17437;DHT22;70275;52.198;5.422;2023-07-09T05:23:43;23.70;69.90
17437;DHT22;70275;52.198;5.422;2023-07-09T05:26:12;23.70;70.00
17437;DHT22;70275;52.198;5.422;2023-07-09T05:28:44;23.80;70.00
17437;DHT22;70275;52.198;5.422;2023-07-09T05:31:13;23.90;69.60
17437;DHT22;70275;52.198;5.422;2023-07-09T05:33:42;24.00;69.90
17437;DHT22;70275;52.198;5.422;2023-07-09T05:36:11;24.30;69.40
17437;DHT22;70275;52.198;5.422;2023-07-09T05:38:41;24.40;68.60
17437;DHT22;70275;52.198;5.422;2023-07-09T05:41:11;24.60;68.50
17437;DHT22;70275;52.198;5.422;2023-07-09T05:43:45;24.90;67.50
17437;DHT22;70275;52.198;5.422;2023-07-09T05:46:14;25.00;66.40
17437;DHT22;70275;52.198;5.422;2023-07-09T05:48:43;25.20;67.00
17437;DHT22;70275;52.198;5.422;2023-07-09T05:51:12;25.30;66.20
17437;DHT22;70275;52.198;5.422;2023-07-09T05:53:41;25.50;64.40
17437;DHT22;70275;52.198;5.422;2023-07-09T05:56:10;25.50;64.50
17437;DHT22;70275;52.198;5.422;2023-07-09T05:58:39;25.40;64.70
17437;DHT22;70275;52.198;5.422;2023-07-09T06:01:11;25.50;65.20
17437;DHT22;70275;52.198;5.422;2023-07-09T06:03:40;25.50;65.00
17437;DHT22;70275;52.198;5.422;2023-07-09T06:06:09;25.50;65.40
17437;DHT22;70275;52.198;5.422;2023-07-09T06:08:38;25.50;66.00
17437;DHT22;70275;52.198;5.422;2023-07-09T06:11:07;25.60;65.10
17437;DHT22;70275;52.198;5.422;2023-07-09T06:13:36;25.70;65.10
17437;DHT22;70275;52.198;5.422;2023-07-09T06:16:05;25.80;65.00
17437;DHT22;70275;52.198;5.422;2023-07-09T06:18:37;25.80;63.70
17437;DHT22;70275;52.198;5.422;2023-07-09T06:21:06;26.00;63.50
17437;DHT22;70275;52.198;5.422;2023-07-09T06:23:37;25.90;63.00
17437;DHT22;70275;52.198;5.422;2023-07-09T06:26:06;26.00;63.50
17437;DHT22;70275;52.198;5.422;2023-07-09T06:28:35;26.20;63.30
17437;DHT22;70275;52.198;5.422;2023-07-09T06:31:04;26.10;62.50
17437;DHT22;70275;52.198;5.422;2023-07-09T06:33:33;26.40;61.80
17437;DHT22;70275;52.198;5.422;2023-07-09T06:36:05;26.50;61.50
17437;DHT22;70275;52.198;5.422;2023-07-09T06:38:34;26.70;61.90
17437;DHT22;70275;52.198;5.422;2023-07-09T06:41:03;26.60;62.10
17437;DHT22;70275;52.198;5.422;2023-07-09T06:43:34;26.40;61.40
17437;DHT22;70275;52.198;5.422;2023-07-09T06:46:06;26.20;61.90
17437;DHT22;70275;52.198;5.422;2023-07-09T06:48:38;26.20;61.40
17437;DHT22;70275;52.198;5.422;2023-07-09T06:51:09;26.40;62.30
17437;DHT22;70275;52.198;5.422;2023-07-09T06:53:39;26.70;61.50
17437;DHT22;70275;52.198;5.422;2023-07-09T06:56:08;26.80;61.30
17437;DHT22;70275;52.198;5.422;2023-07-09T06:58:37;26.90;60.90
17437;DHT22;70275;52.198;5.422;2023-07-09T07:01:06;27.10;61.00
17437;DHT22;70275;52.198;5.422;2023-07-09T07:03:37;27.50;59.80
17437;DHT22;70275;52.198;5.422;2023-07-09T07:06:08;27.50;59.90
17437;DHT22;70275;52.198;5.422;2023-07-09T07:08:37;27.40;60.00
17437;DHT22;70275;52.198;5.422;2023-07-09T07:11:07;27.40;60.40
17437;DHT22;70275;52.198;5.422;2023-07-09T07:13:37;27.60;60.30
17437;DHT22;70275;52.198;5.422;2023-07-09T07:16:10;28.00;59.10
17437;DHT22;70275;52.198;5.422;2023-07-09T07:18:41;28.30;57.90
17437;DHT22;70275;52.198;5.422;2023-07-09T07:21:13;28.10;59.00
17437;DHT22;70275;52.198;5.422;2023-07-09T07:23:42;28.10;59.20
17437;DHT22;70275;52.198;5.422;2023-07-09T07:26:11;28.20;58.30
17437;DHT22;70275;52.198;5.422;2023-07-09T07:28:40;28.30;57.50
17437;DHT22;70275;52.198;5.422;2023-07-09T07:31:09;28.40;58.00
17437;DHT22;70275;52.198;5.422;2023-07-09T07:33:40;28.50;57.80
17437;DHT22;70275;52.198;5.422;2023-07-09T07:36:12;28.70;56.60
17437;DHT22;70275;52.198;5.422;2023-07-09T07:38:41;28.80;55.90
17437;DHT22;70275;52.198;5.422;2023-07-09T07:41:10;28.80;57.00
17437;DHT22;70275;52.198;5.422;2023-07-09T07:43:39;29.00;56.40
17437;DHT22;70275;52.198;5.422;2023-07-09T07:46:08;29.10;56.20
17437;DHT22;70275;52.198;5.422;2023-07-09T07:48:37;29.30;55.40
17437;DHT22;70275;52.198;5.422;2023-07-09T07:51:06;29.10;56.90
17437;DHT22;70275;52.198;5.422;2023-07-09T07:53:37;29.40;54.70
17437;DHT22;70275;52.198;5.422;2023-07-09T07:56:07;29.50;54.90
17437;DHT22;70275;52.198;5.422;2023-07-09T07:58:35;29.70;55.00
17437;DHT22;70275;52.198;5.422;2023-07-09T08:01:04;29.70;52.80
17437;DHT22;70275;52.198;5.422;2023-07-09T08:03:33;29.90;52.60
17437;DHT22;70275;52.198;5.422;2023-07-09T08:06:02;30.10;53.60
17437;DHT22;70275;52.198;5.422;2023-07-09T08:08:31;30.10;54.20
17437;DHT22;70275;52.198;5.422;2023-07-09T08:11:05;30.60;52.70
17437;DHT22;70275;52.198;5.422;2023-07-09T08:13:35;30.80;49.10
17437;DHT22;70275;52.198;5.422;2023-07-09T08:16:05;30.80;50.50
17437;DHT22;70275;52.198;5.422;2023-07-09T08:18:37;30.60;51.00
17437;DHT22;70275;52.198;5.422;2023-07-09T08:21:06;30.70;50.60
17437;DHT22;70275;52.198;5.422;2023-07-09T08:23:35;30.60;51.50
17437;DHT22;70275;52.198;5.422;2023-07-09T08:26:07;30.00;56.30
17437;DHT22;70275;52.198;5.422;2023-07-09T08:28:36;29.00;60.90
17437;DHT22;70275;52.198;5.422;2023-07-09T08:31:06;28.70;60.90
17437;DHT22;70275;52.198;5.422;2023-07-09T08:33:35;28.40;61.30
17437;DHT22;70275;52.198;5.422;2023-07-09T08:36:05;28.30;61.70
17437;DHT22;70275;52.198;5.422;2023-07-09T08:38:34;28.60;61.20
17437;DHT22;70275;52.198;5.422;2023-07-09T08:41:24;28.60;61.40
17437;DHT22;70275;52.198;5.422;2023-07-09T08:44:23;28.70;60.70
17437;DHT22;70275;52.198;5.422;2023-07-09T08:47:07;28.40;62.20
17437;DHT22;70275;52.198;5.422;2023-07-09T08:49:47;28.70;63.00
17437;DHT22;70275;52.198;5.422;2023-07-09T08:52:26;29.10;63.10
17437;DHT22;70275;52.198;5.422;2023-07-09T08:55:04;29.40;60.80
17437;DHT22;70275;52.198;5.422;2023-07-09T08:57:41;29.70;59.70
17437;DHT22;70275;52.198;5.422;2023-07-09T09:00:16;29.60;60.90
17437;DHT22;70275;52.198;5.422;2023-07-09T09:02:50;29.80;59.70
17437;DHT22;70275;52.198;5.422;2023-07-09T09:05:22;29.90;60.00
17437;DHT22;70275;52.198;5.422;2023-07-09T09:07:57;30.10;59.40
17437;DHT22;70275;52.198;5.422;2023-07-09T09:10:40;29.90;59.30
17437;DHT22;70275;52.198;5.422;2023-07-09T09:13:20;30.00;59.10
17437;DHT22;70275;52.198;5.422;2023-07-09T09:15:54;29.80;59.90
17437;DHT22;70275;52.198;5.422;2023-07-09T09:18:29;29.40;60.10
17437;DHT22;70275;52.198;5.422;2023-07-09T09:21:13;29.20;61.30
17437;DHT22;70275;52.198;5.422;2023-07-09T09:23:49;29.20;61.40
17437;DHT22;70275;52.198;5.422;2023-07-09T09:26:24;29.20;61.20
17437;DHT22;70275;52.198;5.422;2023-07-09T09:29:10;29.50;60.80
17437;DHT22;70275;52.198;5.422;2023-07-09T09:31:42;29.50;60.50
17437;DHT22;70275;52.198;5.422;2023-07-09T09:34:18;29.00;61.60
17437;DHT22;70275;52.198;5.422;2023-07-09T09:36:48;29.20;61.40
17437;DHT22;70275;52.198;5.422;2023-07-09T09:39:18;29.30;59.60
17437;DHT22;70275;52.198;5.422;2023-07-09T09:41:47;29.00;59.60
17437;DHT22;70275;52.198;5.422;2023-07-09T09:44:27;29.10;59.40
17437;DHT22;70275;52.198;5.422;2023-07-09T09:46:58;28.80;58.70
17437;DHT22;70275;52.198;5.422;2023-07-09T09:49:28;28.90;60.10
17437;DHT22;70275;52.198;5.422;2023-07-09T09:52:02;28.80;59.20
17437;DHT22;70275;52.198;5.422;2023-07-09T09:54:35;29.40;59.50
17437;DHT22;70275;52.198;5.422;2023-07-09T09:57:04;29.70;57.30
17437;DHT22;70275;52.198;5.422;2023-07-09T09:59:46;29.70;57.90
17437;DHT22;70275;52.198;5.422;2023-07-09T10:02:17;29.90;57.90
17437;DHT22;70275;52.198;5.422;2023-07-09T10:04:50;30.10;56.50
17437;DHT22;70275;52.198;5.422;2023-07-09T10:07:22;30.60;56.30
17437;DHT22;70275;52.198;5.422;2023-07-09T10:09:57;30.00;57.10
17437;DHT22;70275;52.198;5.422;2023-07-09T10:12:36;30.20;57.40
17437;DHT22;70275;52.198;5.422;2023-07-09T10:15:25;30.00;58.00
17437;DHT22;70275;52.198;5.422;2023-07-09T10:18:09;30.30;58.10
17437;DHT22;70275;52.198;5.422;2023-07-09T10:20:50;30.50;57.10
17437;DHT22;70275;52.198;5.422;2023-07-09T10:23:32;30.50;57.60
17437;DHT22;70275;52.198;5.422;2023-07-09T10:26:11;30.80;56.60
17437;DHT22;70275;52.198;5.422;2023-07-09T10:29:01;31.10;55.50
17437;DHT22;70275;52.198;5.422;2023-07-09T10:31:52;30.90;55.30
17437;DHT22;70275;52.198;5.422;2023-07-09T10:34:32;31.00;54.00
17437;DHT22;70275;52.198;5.422;2023-07-09T10:37:27;30.80;53.90
17437;DHT22;70275;52.198;5.422;2023-07-09T10:40:13;30.70;55.40
17437;DHT22;70275;52.198;5.422;2023-07-09T10:42:48;31.30;54.30
17437;DHT22;70275;52.198;5.422;2023-07-09T10:45:28;31.50;53.90
17437;DHT22;70275;52.198;5.422;2023-07-09T10:48:06;31.70;53.30
17437;DHT22;70275;52.198;5.422;2023-07-09T10:50:44;31.40;55.10
17437;DHT22;70275;52.198;5.422;2023-07-09T10:53:26;31.60;54.80
17437;DHT22;70275;52.198;5.422;2023-07-09T10:56:04;31.00;55.10
17437;DHT22;70275;52.198;5.422;2023-07-09T10:58:41;31.30;54.30
17437;DHT22;70275;52.198;5.422;2023-07-09T11:01:21;31.00;54.30
17437;DHT22;70275;52.198;5.422;2023-07-09T11:04:03;31.20;54.60
17437;DHT22;70275;52.198;5.422;2023-07-09T11:06:41;31.10;53.80
17437;DHT22;70275;52.198;5.422;2023-07-09T11:09:19;31.70;53.60
17437;DHT22;70275;52.198;5.422;2023-07-09T11:11:55;32.10;53.60
17437;DHT22;70275;52.198;5.422;2023-07-09T11:14:31;32.00;53.70
17437;DHT22;70275;52.198;5.422;2023-07-09T11:17:04;31.80;52.80
17437;DHT22;70275;52.198;5.422;2023-07-09T11:19:46;31.80;53.50
17437;DHT22;70275;52.198;5.422;2023-07-09T11:22:21;31.90;52.60
17437;DHT22;70275;52.198;5.422;2023-07-09T11:24:52;32.30;51.20
17437;DHT22;70275;52.198;5.422;2023-07-09T11:27:33;32.70;49.20
17437;DHT22;70275;52.198;5.422;2023-07-09T11:30:21;33.30;47.30
17437;DHT22;70275;52.198;5.422;2023-07-09T11:32:56;32.40;49.00
17437;DHT22;70275;52.198;5.422;2023-07-09T11:35:46;32.20;50.90
17437;DHT22;70275;52.198;5.422;2023-07-09T11:38:18;31.90;51.00
17437;DHT22;70275;52.198;5.422;2023-07-09T11:40:51;31.90;51.70
17437;DHT22;70275;52.198;5.422;2023-07-09T11:43:30;32.10;51.80
17437;DHT22;70275;52.198;5.422;2023-07-09T11:46:10;32.00;51.90
17437;DHT22;70275;52.198;5.422;2023-07-09T11:48:44;32.00;51.20
17437;DHT22;70275;52.198;5.422;2023-07-09T11:51:22;31.20;52.50
17437;DHT22;70275;52.198;5.422;2023-07-09T11:53:54;31.20;51.50
17437;DHT22;70275;52.198;5.422;2023-07-09T11:56:24;30.70;53.10
17437;DHT22;70275;52.198;5.422;2023-07-09T11:58:56;31.10;52.30
17437;DHT22;70275;52.198;5.422;2023-07-09T12:01:29;31.30;51.50
17437;DHT22;70275;52.198;5.422;2023-07-09T12:04:03;31.50;50.50
17437;DHT22;70275;52.198;5.422;2023-07-09T12:06:37;31.90;50.00
17437;DHT22;70275;52.198;5.422;2023-07-09T12:09:09;31.70;50.70
17437;DHT22;70275;52.198;5.422;2023-07-09T12:11:45;31.30;50.70
17437;DHT22;70275;52.198;5.422;2023-07-09T12:14:17;31.00;51.10
17437;DHT22;70275;52.198;5.422;2023-07-09T12:16:48;30.30;53.40
17437;DHT22;70275;52.198;5.422;2023-07-09T12:19:22;29.40;54.00
17437;DHT22;70275;52.198;5.422;2023-07-09T12:21:57;29.30;54.30
17437;DHT22;70275;52.198;5.422;2023-07-09T12:24:28;29.40;54.10
17437;DHT22;70275;52.198;5.422;2023-07-09T12:27:01;29.40;54.00
17437;DHT22;70275;52.198;5.422;2023-07-09T12:29:36;29.50;53.10
17437;DHT22;70275;52.198;5.422;2023-07-09T12:32:11;29.10;54.80
17437;DHT22;70275;52.198;5.422;2023-07-09T12:34:46;29.00;55.30
17437;DHT22;70275;52.198;5.422;2023-07-09T12:37:19;28.90;55.30
17437;DHT22;70275;52.198;5.422;2023-07-09T12:39:51;28.70;55.90
17437;DHT22;70275;52.198;5.422;2023-07-09T12:42:27;28.90;55.00
17437;DHT22;70275;52.198;5.422;2023-07-09T12:45:00;28.80;58.30
17437;DHT22;70275;52.198;5.422;2023-07-09T12:47:30;28.70;61.60
17437;DHT22;70275;52.198;5.422;2023-07-09T12:50:15;28.80;58.60
17437;DHT22;70275;52.198;5.422;2023-07-09T12:52:49;29.60;54.90
17437;DHT22;70275;52.198;5.422;2023-07-09T12:55:20;30.00;52.70
17437;DHT22;70275;52.198;5.422;2023-07-09T12:57:51;30.00;52.80
17437;DHT22;70275;52.198;5.422;2023-07-09T13:00:20;29.80;53.50
17437;DHT22;70275;52.198;5.422;2023-07-09T13:02:54;29.70;54.60
17437;DHT22;70275;52.198;5.422;2023-07-09T13:05:25;29.50;54.60
17437;DHT22;70275;52.198;5.422;2023-07-09T13:07:59;29.20;54.00
17437;DHT22;70275;52.198;5.422;2023-07-09T13:10:31;29.10;55.70
17437;DHT22;70275;52.198;5.422;2023-07-09T13:13:10;28.90;53.70
17437;DHT22;70275;52.198;5.422;2023-07-09T13:15:43;29.00;53.00
17437;DHT22;70275;52.198;5.422;2023-07-09T13:18:15;28.80;53.40
17437;DHT22;70275;52.198;5.422;2023-07-09T13:20:45;28.50;54.60
17437;DHT22;70275;52.198;5.422;2023-07-09T13:23:19;28.90;54.40
17437;DHT22;70275;52.198;5.422;2023-07-09T13:25:49;28.80;54.80
17437;DHT22;70275;52.198;5.422;2023-07-09T13:28:23;28.80;54.30
17437;DHT22;70275;52.198;5.422;2023-07-09T13:30:57;28.90;54.60
17437;DHT22;70275;52.198;5.422;2023-07-09T13:33:28;28.80;52.80
17437;DHT22;70275;52.198;5.422;2023-07-09T13:35:57;28.60;52.20
17437;DHT22;70275;52.198;5.422;2023-07-09T13:38:29;28.20;52.90
17437;DHT22;70275;52.198;5.422;2023-07-09T13:41:01;28.60;52.10
17437;DHT22;70275;52.198;5.422;2023-07-09T13:43:43;28.30;53.00
17437;DHT22;70275;52.198;5.422;2023-07-09T13:46:14;28.00;53.80
17437;DHT22;70275;52.198;5.422;2023-07-09T13:48:44;27.80;54.00
17437;DHT22;70275;52.198;5.422;2023-07-09T13:51:15;27.70;55.00
17437;DHT22;70275;52.198;5.422;2023-07-09T13:53:50;27.80;53.80
17437;DHT22;70275;52.198;5.422;2023-07-09T13:56:23;27.80;54.50
17437;DHT22;70275;52.198;5.422;2023-07-09T13:58:52;27.40;53.70
17437;DHT22;70275;52.198;5.422;2023-07-09T14:01:23;27.20;56.20
17437;DHT22;70275;52.198;5.422;2023-07-09T14:03:54;26.50;60.30
17437;DHT22;70275;52.198;5.422;2023-07-09T14:06:26;26.00;62.40
17437;DHT22;70275;52.198;5.422;2023-07-09T14:08:59;25.30;64.60
17437;DHT22;70275;52.198;5.422;2023-07-09T14:11:28;25.20;65.20
17437;DHT22;70275;52.198;5.422;2023-07-09T14:13:58;25.10;65.60
17437;DHT22;70275;52.198;5.422;2023-07-09T14:16:27;24.90;66.20
17437;DHT22;70275;52.198;5.422;2023-07-09T14:18:57;24.60;67.00
17437;DHT22;70275;52.198;5.422;2023-07-09T14:21:26;24.50;67.60
17437;DHT22;70275;52.198;5.422;2023-07-09T14:23:58;24.40;67.40
17437;DHT22;70275;52.198;5.422;2023-07-09T14:26:27;24.10;69.10
17437;DHT22;70275;52.198;5.422;2023-07-09T14:28:56;24.00;69.20
17437;DHT22;70275;52.198;5.422;2023-07-09T14:31:28;23.90;70.10
17437;DHT22;70275;52.198;5.422;2023-07-09T14:34:11;23.90;69.70
17437;DHT22;70275;52.198;5.422;2023-07-09T14:36:47;23.80;70.20
17437;DHT22;70275;52.198;5.422;2023-07-09T14:39:19;23.70;70.90
17437;DHT22;70275;52.198;5.422;2023-07-09T14:41:49;23.70;70.30
17437;DHT22;70275;52.198;5.422;2023-07-09T14:44:25;23.50;70.40
17437;DHT22;70275;52.198;5.422;2023-07-09T14:46:58;23.40;71.20
17437;DHT22;70275;52.198;5.422;2023-07-09T14:49:28;23.40;70.90
17437;DHT22;70275;52.198;5.422;2023-07-09T14:51:57;23.30;71.20
17437;DHT22;70275;52.198;5.422;2023-07-09T14:54:30;23.20;71.60
17437;DHT22;70275;52.198;5.422;2023-07-09T14:56:59;23.40;71.10
17437;DHT22;70275;52.198;5.422;2023-07-09T14:59:28;23.30;74.60
17437;DHT22;70275;52.198;5.422;2023-07-09T15:01:57;22.50;79.30
17437;DHT22;70275;52.198;5.422;2023-07-09T15:04:28;21.90;82.30
17437;DHT22;70275;52.198;5.422;2023-07-09T15:07:00;21.50;83.10
17437;DHT22;70275;52.198;5.422;2023-07-09T15:09:36;21.50;83.10
17437;DHT22;70275;52.198;5.422;2023-07-09T15:12:15;21.70;83.10
17437;DHT22;70275;52.198;5.422;2023-07-09T15:14:46;21.80;83.10
17437;DHT22;70275;52.198;5.422;2023-07-09T15:17:15;21.70;83.10
17437;DHT22;70275;52.198;5.422;2023-07-09T15:19:44;22.00;83.10
17437;DHT22;70275;52.198;5.422;2023-07-09T15:22:23;21.90;83.10
17437;DHT22;70275;52.198;5.422;2023-07-09T15:25:00;22.00;83.10
17437;DHT22;70275;52.198;5.422;2023-07-09T15:27:29;22.00;83.10
17437;DHT22;70275;52.198;5.422;2023-07-09T15:29:58;21.80;83.10
17437;DHT22;70275;52.198;5.422;2023-07-09T15:32:26;21.80;83.10
17437;DHT22;70275;52.198;5.422;2023-07-09T15:34:55;21.80;83.10
17437;DHT22;70275;52.198;5.422;2023-07-09T15:37:24;21.70;83.10
17437;DHT22;70275;52.198;5.422;2023-07-09T15:39:53;21.70;83.10
17437;DHT22;70275;52.198;5.422;2023-07-09T15:42:25;21.90;83.10
17437;DHT22;70275;52.198;5.422;2023-07-09T15:44:54;21.90;83.10
17437;DHT22;70275;52.198;5.422;2023-07-09T15:47:26;21.70;83.10
17437;DHT22;70275;52.198;5.422;2023-07-09T15:49:56;21.60;83.10
17437;DHT22;70275;52.198;5.422;2023-07-09T15:52:25;21.60;83.10
17437;DHT22;70275;52.198;5.422;2023-07-09T15:54:54;21.50;83.10
17437;DHT22;70275;52.198;5.422;2023-07-09T15:57:26;21.40;83.10
17437;DHT22;70275;52.198;5.422;2023-07-09T15:59:55;21.40;83.10
17437;DHT22;70275;52.198;5.422;2023-07-09T16:02:23;21.30;83.10